Cruise inventory

FRV Clupea 1598C

Cruise summary report

Cruise Info. 
Ship name (ship code)FRV Clupea (74CU)
Cruise identifier1598C
Cruise period1998-09-04 — 1998-09-21
StatusCompleted
Port of departureFraserburgh, United Kingdom
Port of returnFraserburgh, United Kingdom
Objectives1. To conduct a large scale hydrographic, chemical and biological survey of the Minches area, from 56º 20'N - 58º 30'N between the mainland and the Outer Hebrides.
2. To investigate gradients of nutrients, chlorophyll and plankton between a selected sea loch (Loch Ewe) and the adjacent coastal waters.
3. To carry out some additional physical measurements (ie temperature and salinity) to assist in the development of a circulation model of the Scottish continental shelf.
Chief scientistSteven J Hay (Fisheries Research Services Aberdeen Marine Laboratory)
Cruise reportFRV Clupea 1598C cruise report cl15_98.pdf — access key 'C' (0.10 MB) 
Ocean/sea areas 
GeneralInner Seas off the West Coast of Scotland
SpecificMinches - Outer Hebrides to Mainland, 56deg20'N to 58deg30'N
Track chartsFRV Clupea 1598C cruise track — trk4377.html
Measurements 
Physical oceanography 
Surface measurements underway (T,S)Quantity: activity duration in days = 17
Description: Thermosalinograph.
Water bottle stationsQuantity: number of stations = 109
Description: Temperature and Salinity, Nutrients, Fluoresence, Chlorophyll and Phytoplankton
CTD stationsQuantity: number of stations = 109
Biology and fisheries 
Phytoplankton pigs (eg chlorophyll, fluorescence)Quantity: number of stations = 109
Description: Temperature and Salinity, Nutrients, Fluoresence, Chlorophyll and Phytoplankton
PhytoplanktonQuantity: number of stations = 109
Description: Temperature and Salinity, Nutrients, Fluoresence, Chlorophyll and Phytoplankton
ZooplanktonQuantity: number of hauls = 59
Description: Ocean Sampler, 286 depth resolved samples
ZooplanktonQuantity: number of hauls = 52
Description: Hauls, Methot Net, 91 depth resolved samples
Data held at BODC 
Series/Profiles 
109  CTD/STD cast
Electrical conductivity of the water column
Vertical spatial coordinates
Salinity of the water column
Temperature of the water column
Reference numbers
Electrical conductivity of the water column
Vertical spatial coordinates
Salinity of the water column
Temperature of the water column
Reference numbers

BODC idDate/TimeLocationDoc.
5121961998-09-05 11:10 58° 29' 55" N  5° 11' 12" W  View metadata report for BODC series reference number 512196
5122031998-09-05 16:28 58° 29' 49" N  5° 20' 8" W  View metadata report for BODC series reference number 512203
5122151998-09-05 17:24 58° 29' 59" N  5° 29' 47" W  View metadata report for BODC series reference number 512215
5122271998-09-06 08:29 58° 29' 58" N  5° 40' 44" W  View metadata report for BODC series reference number 512227
5122391998-09-06 09:30 58° 30' 4" N  5° 49' 23" W  View metadata report for BODC series reference number 512239
5122401998-09-06 10:49 58° 30' 3" N  6° 0' 26" W  View metadata report for BODC series reference number 512240
5122521998-09-06 11:50 58° 30' 1" N  6° 9' 58" W  View metadata report for BODC series reference number 512252
5122641998-09-06 13:03 58° 19' 58" N  6° 6' 57" W  View metadata report for BODC series reference number 512264
5122761998-09-06 13:59 58° 19' 48" N  6° 0' 33" W  View metadata report for BODC series reference number 512276
5122881998-09-06 15:02 58° 19' 48" N  5° 50' 9" W  View metadata report for BODC series reference number 512288
5123071998-09-06 15:55 58° 19' 47" N  5° 40' 39" W  View metadata report for BODC series reference number 512307
5123191998-09-06 17:37 58° 20' 7" N  5° 29' 55" W  View metadata report for BODC series reference number 512319
5123201998-09-07 06:57 58° 20' 14" N  5° 14' 49" W  View metadata report for BODC series reference number 512320
5123321998-09-07 08:14 58° 20' 9" N  5° 21' 46" W  View metadata report for BODC series reference number 512332
5123441998-09-07 11:21 58° 10' 10" N  5° 59' 52" W  View metadata report for BODC series reference number 512344
5123561998-09-07 12:15 58° 10' 4" N  5° 50' 49" W  View metadata report for BODC series reference number 512356
5123681998-09-07 13:16 58° 10' 3" N  5° 40' 14" W  View metadata report for BODC series reference number 512368
5123811998-09-07 14:07 58° 10' 5" N  5° 32' 43" W  View metadata report for BODC series reference number 512381
5123931998-09-07 15:08 58° 10' 4" N  5° 25' 23" W  View metadata report for BODC series reference number 512393
5124001998-09-08 08:13 58° 0' 14" N  5° 34' 18" W  View metadata report for BODC series reference number 512400
5124121998-09-08 09:23 58° 0' 13" N  5° 44' 30" W  View metadata report for BODC series reference number 512412
5124241998-09-08 11:01 58° 0' 1" N  5° 54' 44" W  View metadata report for BODC series reference number 512424
5124361998-09-08 12:38 58° 0' 0" N  6° 9' 38" W  View metadata report for BODC series reference number 512436
5124481998-09-08 14:20 58° 10' 6" N  6° 7' 7" W  View metadata report for BODC series reference number 512448
5124611998-09-08 15:26 58° 9' 53" N  6° 15' 11" W  View metadata report for BODC series reference number 512461
5124731998-09-08 16:47 57° 59' 57" N  6° 21' 2" W  View metadata report for BODC series reference number 512473
5124851998-09-09 08:20 57° 50' 5" N  6° 39' 18" W  View metadata report for BODC series reference number 512485
5124971998-09-09 09:34 57° 49' 55" N  6° 25' 40" W  View metadata report for BODC series reference number 512497
5125041998-09-09 11:20 57° 49' 55" N  6° 11' 3" W  View metadata report for BODC series reference number 512504
5125161998-09-09 12:18 57° 49' 57" N  6° 1' 18" W  View metadata report for BODC series reference number 512516
5125281998-09-09 13:13 57° 50' 13" N  5° 53' 19" W  View metadata report for BODC series reference number 512528
5125411998-09-09 14:36 57° 56' 45" N  5° 44' 3" W  View metadata report for BODC series reference number 512541
5125531998-09-09 15:12 57° 54' 51" N  5° 42' 34" W  View metadata report for BODC series reference number 512553
5125651998-09-09 15:28 57° 53' 52" N  5° 41' 45" W  View metadata report for BODC series reference number 512565
5125771998-09-09 15:47 57° 52' 52" N  5° 40' 47" W  View metadata report for BODC series reference number 512577
5125891998-09-09 16:06 57° 51' 28" N  5° 39' 35" W  View metadata report for BODC series reference number 512589
5125901998-09-09 16:23 57° 50' 12" N  5° 39' 18" W  View metadata report for BODC series reference number 512590
5126081998-09-09 16:40 57° 49' 10" N  5° 38' 29" W  View metadata report for BODC series reference number 512608
5126211998-09-09 17:00 57° 48' 16" N  5° 37' 5" W  View metadata report for BODC series reference number 512621
5126331998-09-10 08:12 57° 40' 1" N  5° 52' 11" W  View metadata report for BODC series reference number 512633
5126451998-09-10 09:31 57° 39' 58" N  5° 59' 30" W  View metadata report for BODC series reference number 512645
5126571998-09-10 10:44 57° 39' 55" N  6° 8' 44" W  View metadata report for BODC series reference number 512657
5126691998-09-10 11:51 57° 34' 59" N  6° 3' 3" W  View metadata report for BODC series reference number 512669
5126701998-09-10 12:35 57° 35' 2" N  5° 55' 2" W  View metadata report for BODC series reference number 512670
5126821998-09-10 13:18 57° 30' 2" N  5° 56' 6" W  View metadata report for BODC series reference number 512682
5126941998-09-10 14:02 57° 24' 58" N  5° 56' 59" W  View metadata report for BODC series reference number 512694
5127011998-09-10 15:25 57° 30' 2" N  6° 4' 43" W  View metadata report for BODC series reference number 512701
5127131998-09-10 16:42 57° 25' 1" N  6° 6' 46" W  View metadata report for BODC series reference number 512713
5127251998-09-11 08:40 57° 0' 2" N  5° 56' 50" W  View metadata report for BODC series reference number 512725
5127371998-09-11 09:51 56° 59' 57" N  6° 6' 7" W  View metadata report for BODC series reference number 512737
5127491998-09-11 11:14 56° 55' 20" N  5° 59' 58" W  View metadata report for BODC series reference number 512749
5127501998-09-11 13:51 56° 40' 10" N  6° 24' 32" W  View metadata report for BODC series reference number 512750
5127621998-09-11 14:52 56° 39' 57" N  6° 15' 25" W  View metadata report for BODC series reference number 512762
5127741998-09-13 09:27 56° 44' 41" N  6° 16' 45" W  View metadata report for BODC series reference number 512774
5127861998-09-13 10:37 56° 44' 58" N  6° 25' 42" W  View metadata report for BODC series reference number 512786
5127981998-09-13 11:36 56° 44' 53" N  6° 34' 37" W  View metadata report for BODC series reference number 512798
5128051998-09-13 12:30 56° 44' 58" N  6° 44' 52" W  View metadata report for BODC series reference number 512805
5128171998-09-13 13:08 56° 44' 57" N  6° 53' 58" W  View metadata report for BODC series reference number 512817
5128291998-09-13 14:06 56° 44' 39" N  7° 2' 32" W  View metadata report for BODC series reference number 512829
5128301998-09-13 15:10 56° 44' 55" N  7° 13' 1" W  View metadata report for BODC series reference number 512830
5128421998-09-13 16:01 56° 44' 55" N  7° 20' 41" W  View metadata report for BODC series reference number 512842
5128541998-09-13 17:01 56° 44' 55" N  7° 30' 54" W  View metadata report for BODC series reference number 512854
5128661998-09-13 17:43 56° 45' 1" N  7° 39' 52" W  View metadata report for BODC series reference number 512866
5128781998-09-14 07:20 56° 41' 26" N  7° 32' 57" W  View metadata report for BODC series reference number 512878
5128911998-09-14 08:24 56° 39' 27" N  7° 25' 29" W  View metadata report for BODC series reference number 512891
5129091998-09-14 09:30 56° 36' 15" N  7° 17' 29" W  View metadata report for BODC series reference number 512909
5129101998-09-14 10:24 56° 33' 42" N  7° 11' 15" W  View metadata report for BODC series reference number 512910
5129221998-09-14 12:10 56° 22' 53" N  6° 54' 58" W  View metadata report for BODC series reference number 512922
5129341998-09-14 13:11 56° 22' 50" N  6° 45' 50" W  View metadata report for BODC series reference number 512934
5129461998-09-14 14:08 56° 22' 50" N  6° 35' 32" W  View metadata report for BODC series reference number 512946
5129581998-09-14 15:05 56° 23' 1" N  6° 25' 20" W  View metadata report for BODC series reference number 512958
5129711998-09-14 16:05 56° 29' 51" N  6° 30' 16" W  View metadata report for BODC series reference number 512971
5129831998-09-14 17:05 56° 29' 37" N  6° 38' 12" W  View metadata report for BODC series reference number 512983
5129951998-09-15 07:12 56° 35' 0" N  6° 53' 55" W  View metadata report for BODC series reference number 512995
5130091998-09-15 08:07 56° 34' 53" N  7° 3' 32" W  View metadata report for BODC series reference number 513009
5130101998-09-15 09:36 56° 39' 58" N  7° 13' 10" W  View metadata report for BODC series reference number 513010
5130221998-09-15 10:47 56° 39' 57" N  7° 2' 59" W  View metadata report for BODC series reference number 513022
5130341998-09-15 11:41 56° 39' 55" N  6° 54' 36" W  View metadata report for BODC series reference number 513034
5130461998-09-15 12:31 56° 39' 52" N  6° 45' 4" W  View metadata report for BODC series reference number 513046
5130581998-09-15 14:22 56° 34' 41" N  6° 31' 33" W  View metadata report for BODC series reference number 513058
5130711998-09-15 15:22 56° 35' 0" N  6° 22' 58" W  View metadata report for BODC series reference number 513071
5130831998-09-17 07:27 56° 54' 37" N  6° 15' 38" W  View metadata report for BODC series reference number 513083
5130951998-09-17 08:15 56° 54' 58" N  6° 21' 53" W  View metadata report for BODC series reference number 513095
5131021998-09-17 08:59 56° 54' 58" N  6° 29' 6" W  View metadata report for BODC series reference number 513102
5131141998-09-17 09:51 56° 54' 59" N  6° 37' 41" W  View metadata report for BODC series reference number 513114
5131261998-09-17 10:25 56° 54' 58" N  6° 44' 59" W  View metadata report for BODC series reference number 513126
5131381998-09-17 11:02 56° 55' 1" N  6° 51' 47" W  View metadata report for BODC series reference number 513138
5131511998-09-17 11:55 56° 55' 10" N  6° 59' 15" W  View metadata report for BODC series reference number 513151
5131631998-09-17 12:53 56° 55' 2" N  7° 9' 55" W  View metadata report for BODC series reference number 513163
5131751998-09-17 14:02 56° 55' 18" N  7° 20' 23" W  View metadata report for BODC series reference number 513175
5131871998-09-17 14:49 56° 54' 56" N  7° 24' 26" W  View metadata report for BODC series reference number 513187
5131991998-09-17 16:54 57° 9' 51" N  7° 10' 15" W  View metadata report for BODC series reference number 513199
5132061998-09-18 06:58 57° 10' 0" N  7° 0' 40" W  View metadata report for BODC series reference number 513206
5132181998-09-18 07:50 57° 10' 0" N  6° 52' 47" W  View metadata report for BODC series reference number 513218
5132311998-09-18 08:53 57° 9' 53" N  6° 42' 59" W  View metadata report for BODC series reference number 513231
5132431998-09-18 09:55 57° 9' 42" N  6° 35' 8" W  View metadata report for BODC series reference number 513243
5132551998-09-18 10:54 57° 10' 7" N  6° 23' 21" W  View metadata report for BODC series reference number 513255
5132671998-09-18 13:01 57° 19' 9" N  6° 46' 17" W  View metadata report for BODC series reference number 513267
5132791998-09-18 14:19 57° 20' 17" N  6° 56' 30" W  View metadata report for BODC series reference number 513279
5132801998-09-18 15:52 57° 20' 40" N  7° 9' 3" W  View metadata report for BODC series reference number 513280
5132921998-09-19 06:44 57° 25' 0" N  7° 7' 50" W  View metadata report for BODC series reference number 513292
5133111998-09-19 07:17 57° 25' 1" N  6° 59' 53" W  View metadata report for BODC series reference number 513311
5133231998-09-19 08:00 57° 24' 57" N  6° 49' 59" W  View metadata report for BODC series reference number 513323
5133351998-09-19 08:59 57° 29' 34" N  6° 47' 16" W  View metadata report for BODC series reference number 513335
5133471998-09-19 10:15 57° 29' 58" N  6° 56' 46" W  View metadata report for BODC series reference number 513347
5133591998-09-19 11:21 57° 29' 51" N  7° 5' 55" W  View metadata report for BODC series reference number 513359
5133601998-09-19 12:56 57° 39' 43" N  6° 59' 49" W  View metadata report for BODC series reference number 513360
5133721998-09-19 14:32 57° 40' 7" N  6° 45' 5" W  View metadata report for BODC series reference number 513372
5133841998-09-19 16:07 57° 39' 47" N  6° 30' 4" W  View metadata report for BODC series reference number 513384